sensor_id;sensor_type;location;lat;lon;timestamp;temperature;humidity
19138;DHT22;68178;52.188;5.598;2023-05-29T00:01:31;12.20;99.90
19138;DHT22;68178;52.188;5.598;2023-05-29T00:03:57;12.20;99.90
19138;DHT22;68178;52.188;5.598;2023-05-29T00:06:24;12.20;99.90
19138;DHT22;68178;52.188;5.598;2023-05-29T00:08:50;12.10;99.90
19138;DHT22;68178;52.188;5.598;2023-05-29T00:11:15;12.10;99.90
19138;DHT22;68178;52.188;5.598;2023-05-29T00:13:41;12.10;99.90
19138;DHT22;68178;52.188;5.598;2023-05-29T00:16:07;11.90;99.90
19138;DHT22;68178;52.188;5.598;2023-05-29T00:18:35;11.90;99.90
19138;DHT22;68178;52.188;5.598;2023-05-29T00:21:00;11.90;99.90
19138;DHT22;68178;52.188;5.598;2023-05-29T00:23:26;11.80;99.90
19138;DHT22;68178;52.188;5.598;2023-05-29T00:25:51;11.80;99.90
19138;DHT22;68178;52.188;5.598;2023-05-29T00:28:17;11.80;99.90
19138;DHT22;68178;52.188;5.598;2023-05-29T00:30:42;11.70;99.90
19138;DHT22;68178;52.188;5.598;2023-05-29T00:33:08;11.70;99.90
19138;DHT22;68178;52.188;5.598;2023-05-29T00:35:34;11.70;99.90
19138;DHT22;68178;52.188;5.598;2023-05-29T00:37:59;11.70;99.90
19138;DHT22;68178;52.188;5.598;2023-05-29T00:40:25;11.70;99.90
19138;DHT22;68178;52.188;5.598;2023-05-29T00:42:51;11.80;99.90
19138;DHT22;68178;52.188;5.598;2023-05-29T00:45:17;11.70;99.90
19138;DHT22;68178;52.188;5.598;2023-05-29T00:47:42;11.70;99.90
19138;DHT22;68178;52.188;5.598;2023-05-29T00:50:12;11.80;99.90
19138;DHT22;68178;52.188;5.598;2023-05-29T00:52:41;11.60;99.90
19138;DHT22;68178;52.188;5.598;2023-05-29T00:55:09;11.60;99.90
19138;DHT22;68178;52.188;5.598;2023-05-29T00:57:35;11.50;99.90
19138;DHT22;68178;52.188;5.598;2023-05-29T01:00:03;11.60;99.90
19138;DHT22;68178;52.188;5.598;2023-05-29T01:02:31;11.60;99.90
19138;DHT22;68178;52.188;5.598;2023-05-29T01:04:57;11.50;99.90
19138;DHT22;68178;52.188;5.598;2023-05-29T01:07:23;11.40;99.90
19138;DHT22;68178;52.188;5.598;2023-05-29T01:09:48;11.50;99.90
19138;DHT22;68178;52.188;5.598;2023-05-29T01:12:33;11.50;99.90
19138;DHT22;68178;52.188;5.598;2023-05-29T01:15:15;11.40;99.90
19138;DHT22;68178;52.188;5.598;2023-05-29T01:18:05;11.40;99.90
19138;DHT22;68178;52.188;5.598;2023-05-29T01:20:41;11.30;99.90
19138;DHT22;68178;52.188;5.598;2023-05-29T01:29:01;11.30;99.90
19138;DHT22;68178;52.188;5.598;2023-05-29T01:31:28;11.20;99.90
19138;DHT22;68178;52.188;5.598;2023-05-29T01:33:56;11.20;99.90
19138;DHT22;68178;52.188;5.598;2023-05-29T01:36:22;11.30;99.90
19138;DHT22;68178;52.188;5.598;2023-05-29T01:38:49;11.20;99.90
19138;DHT22;68178;52.188;5.598;2023-05-29T01:41:16;11.20;99.90
19138;DHT22;68178;52.188;5.598;2023-05-29T01:43:44;11.10;99.90
19138;DHT22;68178;52.188;5.598;2023-05-29T01:46:11;11.00;99.90
19138;DHT22;68178;52.188;5.598;2023-05-29T01:48:37;10.90;99.90
19138;DHT22;68178;52.188;5.598;2023-05-29T01:51:03;11.00;99.90
19138;DHT22;68178;52.188;5.598;2023-05-29T01:53:29;11.10;99.90
19138;DHT22;68178;52.188;5.598;2023-05-29T01:55:54;11.10;99.90
19138;DHT22;68178;52.188;5.598;2023-05-29T01:58:21;11.10;99.90
19138;DHT22;68178;52.188;5.598;2023-05-29T02:00:48;11.00;99.90
19138;DHT22;68178;52.188;5.598;2023-05-29T02:03:14;11.00;99.90
19138;DHT22;68178;52.188;5.598;2023-05-29T02:05:40;11.00;99.90
19138;DHT22;68178;52.188;5.598;2023-05-29T02:08:05;11.20;99.90
19138;DHT22;68178;52.188;5.598;2023-05-29T02:10:31;11.10;99.90
19138;DHT22;68178;52.188;5.598;2023-05-29T02:12:57;11.10;99.90
19138;DHT22;68178;52.188;5.598;2023-05-29T02:15:23;11.10;99.90
19138;DHT22;68178;52.188;5.598;2023-05-29T02:17:48;10.90;99.90
19138;DHT22;68178;52.188;5.598;2023-05-29T02:20:14;10.90;99.90
19138;DHT22;68178;52.188;5.598;2023-05-29T02:22:41;10.80;99.90
19138;DHT22;68178;52.188;5.598;2023-05-29T02:25:07;10.80;99.90
19138;DHT22;68178;52.188;5.598;2023-05-29T02:27:33;10.90;99.90
19138;DHT22;68178;52.188;5.598;2023-05-29T02:29:58;10.90;99.90
19138;DHT22;68178;52.188;5.598;2023-05-29T02:32:24;10.70;99.90
19138;DHT22;68178;52.188;5.598;2023-05-29T02:34:51;10.80;99.90
19138;DHT22;68178;52.188;5.598;2023-05-29T02:37:17;10.80;99.90
19138;DHT22;68178;52.188;5.598;2023-05-29T02:39:43;10.70;99.90
19138;DHT22;68178;52.188;5.598;2023-05-29T02:42:09;10.90;99.90
19138;DHT22;68178;52.188;5.598;2023-05-29T02:44:34;10.80;99.90
19138;DHT22;68178;52.188;5.598;2023-05-29T02:47:00;11.00;99.90
19138;DHT22;68178;52.188;5.598;2023-05-29T02:49:25;10.80;99.90
19138;DHT22;68178;52.188;5.598;2023-05-29T02:51:51;10.90;99.90
19138;DHT22;68178;52.188;5.598;2023-05-29T02:54:22;10.70;99.90
19138;DHT22;68178;52.188;5.598;2023-05-29T02:56:48;10.70;99.90
19138;DHT22;68178;52.188;5.598;2023-05-29T02:59:13;10.50;99.90
19138;DHT22;68178;52.188;5.598;2023-05-29T03:01:39;10.50;99.90
19138;DHT22;68178;52.188;5.598;2023-05-29T03:04:04;10.60;99.90
19138;DHT22;68178;52.188;5.598;2023-05-29T03:06:30;10.60;99.90
19138;DHT22;68178;52.188;5.598;2023-05-29T03:08:57;10.60;99.90
19138;DHT22;68178;52.188;5.598;2023-05-29T03:11:25;10.50;99.90
19138;DHT22;68178;52.188;5.598;2023-05-29T03:13:50;10.40;99.90
19138;DHT22;68178;52.188;5.598;2023-05-29T03:16:16;10.50;99.90
19138;DHT22;68178;52.188;5.598;2023-05-29T03:18:41;10.40;99.90
19138;DHT22;68178;52.188;5.598;2023-05-29T03:21:10;10.40;99.90
19138;DHT22;68178;52.188;5.598;2023-05-29T03:23:36;10.40;99.90
19138;DHT22;68178;52.188;5.598;2023-05-29T03:26:02;10.30;99.90
19138;DHT22;68178;52.188;5.598;2023-05-29T03:28:28;10.40;99.90
19138;DHT22;68178;52.188;5.598;2023-05-29T03:30:53;10.30;99.90
19138;DHT22;68178;52.188;5.598;2023-05-29T03:33:19;10.40;99.90
19138;DHT22;68178;52.188;5.598;2023-05-29T03:35:45;10.30;99.90
19138;DHT22;68178;52.188;5.598;2023-05-29T03:38:10;10.30;99.90
19138;DHT22;68178;52.188;5.598;2023-05-29T03:40:36;10.40;99.90
19138;DHT22;68178;52.188;5.598;2023-05-29T03:43:01;10.40;99.90
19138;DHT22;68178;52.188;5.598;2023-05-29T03:45:27;10.30;99.90
19138;DHT22;68178;52.188;5.598;2023-05-29T03:47:52;10.50;99.90
19138;DHT22;68178;52.188;5.598;2023-05-29T03:50:18;10.40;99.90
19138;DHT22;68178;52.188;5.598;2023-05-29T03:52:43;10.30;99.90
19138;DHT22;68178;52.188;5.598;2023-05-29T03:55:10;10.40;99.90
19138;DHT22;68178;52.188;5.598;2023-05-29T03:57:40;10.40;99.90
19138;DHT22;68178;52.188;5.598;2023-05-29T04:00:10;10.40;99.90
19138;DHT22;68178;52.188;5.598;2023-05-29T04:02:40;10.30;99.90
19138;DHT22;68178;52.188;5.598;2023-05-29T04:05:06;10.40;99.90
19138;DHT22;68178;52.188;5.598;2023-05-29T04:07:33;10.20;99.90
19138;DHT22;68178;52.188;5.598;2023-05-29T04:09:58;10.20;99.90
19138;DHT22;68178;52.188;5.598;2023-05-29T04:12:24;10.30;99.90
19138;DHT22;68178;52.188;5.598;2023-05-29T04:14:50;10.30;99.90
19138;DHT22;68178;52.188;5.598;2023-05-29T04:17:15;10.30;99.90
19138;DHT22;68178;52.188;5.598;2023-05-29T04:19:41;10.20;99.90
19138;DHT22;68178;52.188;5.598;2023-05-29T04:22:07;10.30;99.90
19138;DHT22;68178;52.188;5.598;2023-05-29T04:24:33;10.30;99.90
19138;DHT22;68178;52.188;5.598;2023-05-29T04:27:01;10.50;99.90
19138;DHT22;68178;52.188;5.598;2023-05-29T04:29:28;10.50;99.90
19138;DHT22;68178;52.188;5.598;2023-05-29T04:31:53;10.60;99.90
19138;DHT22;68178;52.188;5.598;2023-05-29T04:34:20;10.50;99.90
19138;DHT22;68178;52.188;5.598;2023-05-29T04:36:47;10.50;99.90
19138;DHT22;68178;52.188;5.598;2023-05-29T04:39:13;10.50;99.90
19138;DHT22;68178;52.188;5.598;2023-05-29T04:41:41;10.50;99.90
19138;DHT22;68178;52.188;5.598;2023-05-29T04:44:07;10.80;99.90
19138;DHT22;68178;52.188;5.598;2023-05-29T04:46:33;10.70;99.90
19138;DHT22;68178;52.188;5.598;2023-05-29T04:49:00;10.70;99.90
19138;DHT22;68178;52.188;5.598;2023-05-29T04:51:31;10.80;99.90
19138;DHT22;68178;52.188;5.598;2023-05-29T04:53:56;10.80;99.90
19138;DHT22;68178;52.188;5.598;2023-05-29T04:56:22;10.60;99.90
19138;DHT22;68178;52.188;5.598;2023-05-29T04:58:48;10.70;99.90
19138;DHT22;68178;52.188;5.598;2023-05-29T05:01:13;10.80;99.90
19138;DHT22;68178;52.188;5.598;2023-05-29T05:03:42;10.90;99.90
19138;DHT22;68178;52.188;5.598;2023-05-29T05:06:08;11.00;99.90
19138;DHT22;68178;52.188;5.598;2023-05-29T05:08:34;11.20;99.90
19138;DHT22;68178;52.188;5.598;2023-05-29T05:11:01;11.10;99.90
19138;DHT22;68178;52.188;5.598;2023-05-29T05:13:27;11.30;99.90
19138;DHT22;68178;52.188;5.598;2023-05-29T05:15:53;11.10;99.90
19138;DHT22;68178;52.188;5.598;2023-05-29T05:18:18;11.10;99.90
19138;DHT22;68178;52.188;5.598;2023-05-29T05:20:44;11.20;99.90
19138;DHT22;68178;52.188;5.598;2023-05-29T05:23:10;11.40;99.90
19138;DHT22;68178;52.188;5.598;2023-05-29T05:25:37;11.50;99.90
19138;DHT22;68178;52.188;5.598;2023-05-29T05:28:04;11.60;99.90
19138;DHT22;68178;52.188;5.598;2023-05-29T05:30:30;11.70;99.90
19138;DHT22;68178;52.188;5.598;2023-05-29T05:32:55;11.70;99.90
19138;DHT22;68178;52.188;5.598;2023-05-29T05:35:21;11.80;99.90
19138;DHT22;68178;52.188;5.598;2023-05-29T05:37:47;11.80;99.90
19138;DHT22;68178;52.188;5.598;2023-05-29T05:40:13;11.90;99.90
19138;DHT22;68178;52.188;5.598;2023-05-29T05:42:38;11.90;99.90
19138;DHT22;68178;52.188;5.598;2023-05-29T05:45:04;12.00;99.90
19138;DHT22;68178;52.188;5.598;2023-05-29T05:47:31;12.00;99.90
19138;DHT22;68178;52.188;5.598;2023-05-29T05:49:57;12.10;99.90
19138;DHT22;68178;52.188;5.598;2023-05-29T05:52:26;12.30;99.90
19138;DHT22;68178;52.188;5.598;2023-05-29T05:54:55;12.40;99.90
19138;DHT22;68178;52.188;5.598;2023-05-29T05:57:21;12.60;99.90
19138;DHT22;68178;52.188;5.598;2023-05-29T05:59:46;12.70;99.90
19138;DHT22;68178;52.188;5.598;2023-05-29T06:02:12;12.80;99.90
19138;DHT22;68178;52.188;5.598;2023-05-29T06:04:37;12.90;99.90
19138;DHT22;68178;52.188;5.598;2023-05-29T06:07:03;12.90;99.90
19138;DHT22;68178;52.188;5.598;2023-05-29T06:09:29;13.10;99.90
19138;DHT22;68178;52.188;5.598;2023-05-29T06:11:54;13.10;99.90
19138;DHT22;68178;52.188;5.598;2023-05-29T06:14:20;13.20;99.90
19138;DHT22;68178;52.188;5.598;2023-05-29T06:16:46;13.30;99.90
19138;DHT22;68178;52.188;5.598;2023-05-29T06:19:12;13.20;99.90
19138;DHT22;68178;52.188;5.598;2023-05-29T06:21:37;13.20;99.90
19138;DHT22;68178;52.188;5.598;2023-05-29T06:24:03;13.10;99.90
19138;DHT22;68178;52.188;5.598;2023-05-29T06:26:29;13.30;99.90
19138;DHT22;68178;52.188;5.598;2023-05-29T06:28:54;13.10;99.90
19138;DHT22;68178;52.188;5.598;2023-05-29T06:31:20;13.30;99.90
19138;DHT22;68178;52.188;5.598;2023-05-29T06:33:45;13.20;99.90
19138;DHT22;68178;52.188;5.598;2023-05-29T06:36:11;13.50;99.90
19138;DHT22;68178;52.188;5.598;2023-05-29T06:38:37;13.50;99.90
19138;DHT22;68178;52.188;5.598;2023-05-29T06:41:03;13.70;99.90
19138;DHT22;68178;52.188;5.598;2023-05-29T06:43:28;13.50;99.90
19138;DHT22;68178;52.188;5.598;2023-05-29T06:45:57;13.50;99.90
19138;DHT22;68178;52.188;5.598;2023-05-29T06:48:23;13.80;99.90
19138;DHT22;68178;52.188;5.598;2023-05-29T06:50:48;14.00;99.90
19138;DHT22;68178;52.188;5.598;2023-05-29T06:53:14;14.00;99.90
19138;DHT22;68178;52.188;5.598;2023-05-29T06:55:39;14.20;99.90
19138;DHT22;68178;52.188;5.598;2023-05-29T06:58:06;14.70;99.90
19138;DHT22;68178;52.188;5.598;2023-05-29T07:00:32;14.80;99.90
19138;DHT22;68178;52.188;5.598;2023-05-29T07:02:57;14.70;99.90
19138;DHT22;68178;52.188;5.598;2023-05-29T07:05:23;14.80;99.90
19138;DHT22;68178;52.188;5.598;2023-05-29T07:07:48;14.90;99.90
19138;DHT22;68178;52.188;5.598;2023-05-29T07:10:14;15.30;99.90
19138;DHT22;68178;52.188;5.598;2023-05-29T07:12:40;15.60;99.90
19138;DHT22;68178;52.188;5.598;2023-05-29T07:15:06;15.60;99.90
19138;DHT22;68178;52.188;5.598;2023-05-29T07:17:32;16.00;99.90
19138;DHT22;68178;52.188;5.598;2023-05-29T07:19:57;16.10;99.90
19138;DHT22;68178;52.188;5.598;2023-05-29T07:22:23;16.40;99.90
19138;DHT22;68178;52.188;5.598;2023-05-29T07:24:48;16.00;99.90
19138;DHT22;68178;52.188;5.598;2023-05-29T07:27:14;16.00;99.90
19138;DHT22;68178;52.188;5.598;2023-05-29T07:29:40;16.00;99.90
19138;DHT22;68178;52.188;5.598;2023-05-29T07:32:05;16.10;99.90
19138;DHT22;68178;52.188;5.598;2023-05-29T07:34:31;16.50;99.90
19138;DHT22;68178;52.188;5.598;2023-05-29T07:37:00;16.30;99.90
19138;DHT22;68178;52.188;5.598;2023-05-29T07:39:26;16.30;99.90
19138;DHT22;68178;52.188;5.598;2023-05-29T07:41:51;16.50;99.90
19138;DHT22;68178;52.188;5.598;2023-05-29T07:44:18;16.80;99.90
19138;DHT22;68178;52.188;5.598;2023-05-29T07:46:43;16.80;99.90
19138;DHT22;68178;52.188;5.598;2023-05-29T07:49:09;17.30;99.90
19138;DHT22;68178;52.188;5.598;2023-05-29T07:51:34;17.10;99.90
19138;DHT22;68178;52.188;5.598;2023-05-29T07:54:01;17.10;99.90
19138;DHT22;68178;52.188;5.598;2023-05-29T07:56:26;17.20;99.90
19138;DHT22;68178;52.188;5.598;2023-05-29T07:58:52;17.30;99.90
19138;DHT22;68178;52.188;5.598;2023-05-29T08:01:20;17.00;99.90
19138;DHT22;68178;52.188;5.598;2023-05-29T08:03:46;17.10;99.90
19138;DHT22;68178;52.188;5.598;2023-05-29T08:06:12;17.20;99.90
19138;DHT22;68178;52.188;5.598;2023-05-29T08:08:38;17.10;99.90
19138;DHT22;68178;52.188;5.598;2023-05-29T08:11:04;17.00;99.90
19138;DHT22;68178;52.188;5.598;2023-05-29T08:13:30;17.10;99.90
19138;DHT22;68178;52.188;5.598;2023-05-29T08:15:56;16.90;99.90
19138;DHT22;68178;52.188;5.598;2023-05-29T08:18:26;16.80;99.90
19138;DHT22;68178;52.188;5.598;2023-05-29T08:20:52;16.90;99.90
19138;DHT22;68178;52.188;5.598;2023-05-29T08:23:18;17.00;99.90
19138;DHT22;68178;52.188;5.598;2023-05-29T08:25:44;17.20;99.90
19138;DHT22;68178;52.188;5.598;2023-05-29T08:28:10;17.20;99.90
19138;DHT22;68178;52.188;5.598;2023-05-29T08:30:36;17.10;99.90
19138;DHT22;68178;52.188;5.598;2023-05-29T08:33:02;16.90;99.90
19138;DHT22;68178;52.188;5.598;2023-05-29T08:35:28;16.90;99.90
19138;DHT22;68178;52.188;5.598;2023-05-29T08:37:54;16.90;99.90
19138;DHT22;68178;52.188;5.598;2023-05-29T08:40:20;17.10;99.90
19138;DHT22;68178;52.188;5.598;2023-05-29T08:43:12;17.40;99.90
19138;DHT22;68178;52.188;5.598;2023-05-29T08:45:42;17.50;99.90
19138;DHT22;68178;52.188;5.598;2023-05-29T08:48:09;17.30;99.90
19138;DHT22;68178;52.188;5.598;2023-05-29T08:50:43;17.20;99.90
19138;DHT22;68178;52.188;5.598;2023-05-29T08:53:11;17.10;99.90
19138;DHT22;68178;52.188;5.598;2023-05-29T08:55:36;17.10;99.90
19138;DHT22;68178;52.188;5.598;2023-05-29T08:58:02;16.90;99.90
19138;DHT22;68178;52.188;5.598;2023-05-29T09:00:28;17.20;99.90
19138;DHT22;68178;52.188;5.598;2023-05-29T09:02:54;17.20;99.90
19138;DHT22;68178;52.188;5.598;2023-05-29T09:05:21;17.10;99.90
19138;DHT22;68178;52.188;5.598;2023-05-29T09:07:47;17.30;99.90
19138;DHT22;68178;52.188;5.598;2023-05-29T09:10:15;17.30;99.90
19138;DHT22;68178;52.188;5.598;2023-05-29T09:12:41;17.30;99.90
19138;DHT22;68178;52.188;5.598;2023-05-29T09:15:27;17.40;99.90
19138;DHT22;68178;52.188;5.598;2023-05-29T09:17:54;17.20;99.90
19138;DHT22;68178;52.188;5.598;2023-05-29T09:20:21;17.20;99.90
19138;DHT22;68178;52.188;5.598;2023-05-29T09:23:06;17.20;99.90
19138;DHT22;68178;52.188;5.598;2023-05-29T09:25:33;17.60;99.90
19138;DHT22;68178;52.188;5.598;2023-05-29T09:28:00;17.90;99.90
19138;DHT22;68178;52.188;5.598;2023-05-29T09:30:40;18.00;99.90
19138;DHT22;68178;52.188;5.598;2023-05-29T09:33:08;18.30;99.90
19138;DHT22;68178;52.188;5.598;2023-05-29T09:35:42;18.20;99.90
19138;DHT22;68178;52.188;5.598;2023-05-29T09:38:09;18.30;99.90
19138;DHT22;68178;52.188;5.598;2023-05-29T09:40:36;18.50;99.90
19138;DHT22;68178;52.188;5.598;2023-05-29T09:43:05;18.70;99.90
19138;DHT22;68178;52.188;5.598;2023-05-29T09:45:32;18.80;99.90
19138;DHT22;68178;52.188;5.598;2023-05-29T09:47:58;18.70;99.90
19138;DHT22;68178;52.188;5.598;2023-05-29T09:50:27;18.70;99.90
19138;DHT22;68178;52.188;5.598;2023-05-29T09:52:56;18.80;99.90
19138;DHT22;68178;52.188;5.598;2023-05-29T09:55:23;18.90;99.90
19138;DHT22;68178;52.188;5.598;2023-05-29T09:57:53;18.90;99.90
19138;DHT22;68178;52.188;5.598;2023-05-29T10:00:19;19.10;99.90
19138;DHT22;68178;52.188;5.598;2023-05-29T10:02:45;19.20;99.90
19138;DHT22;68178;52.188;5.598;2023-05-29T10:05:11;19.40;99.90
19138;DHT22;68178;52.188;5.598;2023-05-29T10:07:44;19.50;99.90
19138;DHT22;68178;52.188;5.598;2023-05-29T10:10:12;19.30;99.90
19138;DHT22;68178;52.188;5.598;2023-05-29T10:12:39;18.90;99.90
19138;DHT22;68178;52.188;5.598;2023-05-29T10:15:12;19.00;99.90
19138;DHT22;68178;52.188;5.598;2023-05-29T10:17:59;18.80;99.90
19138;DHT22;68178;52.188;5.598;2023-05-29T10:20:28;18.40;99.90
19138;DHT22;68178;52.188;5.598;2023-05-29T10:22:56;18.20;99.90
19138;DHT22;68178;52.188;5.598;2023-05-29T10:25:22;18.40;99.90
19138;DHT22;68178;52.188;5.598;2023-05-29T10:27:49;18.90;99.90
19138;DHT22;68178;52.188;5.598;2023-05-29T10:30:26;18.90;99.90
19138;DHT22;68178;52.188;5.598;2023-05-29T10:33:09;18.90;99.90
19138;DHT22;68178;52.188;5.598;2023-05-29T10:38:27;18.80;99.90
19138;DHT22;68178;52.188;5.598;2023-05-29T10:40:52;19.00;99.90
19138;DHT22;68178;52.188;5.598;2023-05-29T10:45:56;19.20;99.90
19138;DHT22;68178;52.188;5.598;2023-05-29T10:50:55;19.60;99.90
19138;DHT22;68178;52.188;5.598;2023-05-29T10:53:31;19.80;99.90
19138;DHT22;68178;52.188;5.598;2023-05-29T10:55:58;20.10;99.90
19138;DHT22;68178;52.188;5.598;2023-05-29T10:58:26;20.40;99.90
19138;DHT22;68178;52.188;5.598;2023-05-29T11:00:53;20.30;99.90
19138;DHT22;68178;52.188;5.598;2023-05-29T11:03:25;20.30;99.90
19138;DHT22;68178;52.188;5.598;2023-05-29T11:08:45;20.30;99.90
19138;DHT22;68178;52.188;5.598;2023-05-29T11:11:12;20.40;99.90
19138;DHT22;68178;52.188;5.598;2023-05-29T11:13:38;20.60;99.90
19138;DHT22;68178;52.188;5.598;2023-05-29T11:16:19;20.50;98.90
19138;DHT22;68178;52.188;5.598;2023-05-29T11:18:46;20.60;98.40
19138;DHT22;68178;52.188;5.598;2023-05-29T11:23:47;20.70;97.80
19138;DHT22;68178;52.188;5.598;2023-05-29T11:26:15;20.80;97.70
19138;DHT22;68178;52.188;5.598;2023-05-29T11:28:42;20.90;96.50
19138;DHT22;68178;52.188;5.598;2023-05-29T11:31:08;20.70;95.70
19138;DHT22;68178;52.188;5.598;2023-05-29T11:33:39;20.40;95.40
19138;DHT22;68178;52.188;5.598;2023-05-29T11:36:08;20.30;97.70
19138;DHT22;68178;52.188;5.598;2023-05-29T11:38:33;20.20;97.60
19138;DHT22;68178;52.188;5.598;2023-05-29T11:41:01;20.40;95.80
19138;DHT22;68178;52.188;5.598;2023-05-29T11:43:26;20.50;97.20
19138;DHT22;68178;52.188;5.598;2023-05-29T11:45:52;20.70;96.90
19138;DHT22;68178;52.188;5.598;2023-05-29T11:48:18;20.70;97.70
19138;DHT22;68178;52.188;5.598;2023-05-29T11:50:43;20.80;96.60
19138;DHT22;68178;52.188;5.598;2023-05-29T11:53:09;20.90;96.30
19138;DHT22;68178;52.188;5.598;2023-05-29T11:55:36;20.80;97.70
19138;DHT22;68178;52.188;5.598;2023-05-29T11:58:05;21.10;97.00
19138;DHT22;68178;52.188;5.598;2023-05-29T12:00:38;21.30;97.60
19138;DHT22;68178;52.188;5.598;2023-05-29T12:03:05;21.30;98.20
19138;DHT22;68178;52.188;5.598;2023-05-29T12:05:43;21.40;97.50
19138;DHT22;68178;52.188;5.598;2023-05-29T12:08:09;21.20;97.00
19138;DHT22;68178;52.188;5.598;2023-05-29T12:10:35;21.00;97.00
19138;DHT22;68178;52.188;5.598;2023-05-29T12:13:01;20.90;97.20
19138;DHT22;68178;52.188;5.598;2023-05-29T12:15:27;20.90;98.00
19138;DHT22;68178;52.188;5.598;2023-05-29T12:17:54;20.90;97.20
19138;DHT22;68178;52.188;5.598;2023-05-29T12:20:22;20.90;97.40
19138;DHT22;68178;52.188;5.598;2023-05-29T12:22:48;21.10;97.30
19138;DHT22;68178;52.188;5.598;2023-05-29T12:25:17;21.10;96.90
19138;DHT22;68178;52.188;5.598;2023-05-29T12:27:47;21.00;95.80
19138;DHT22;68178;52.188;5.598;2023-05-29T12:30:22;20.40;95.50
19138;DHT22;68178;52.188;5.598;2023-05-29T12:32:49;20.50;96.30
19138;DHT22;68178;52.188;5.598;2023-05-29T12:37:58;21.30;96.90
19138;DHT22;68178;52.188;5.598;2023-05-29T12:40:28;21.40;94.50
19138;DHT22;68178;52.188;5.598;2023-05-29T12:43:00;21.50;94.90
19138;DHT22;68178;52.188;5.598;2023-05-29T12:45:28;21.80;94.70
19138;DHT22;68178;52.188;5.598;2023-05-29T12:48:01;21.20;95.10
19138;DHT22;68178;52.188;5.598;2023-05-29T12:50:31;21.10;95.60
19138;DHT22;68178;52.188;5.598;2023-05-29T12:55:31;21.10;95.60
19138;DHT22;68178;52.188;5.598;2023-05-29T12:58:12;21.50;95.90
19138;DHT22;68178;52.188;5.598;2023-05-29T13:00:39;21.30;95.60
19138;DHT22;68178;52.188;5.598;2023-05-29T13:03:05;21.20;96.30
19138;DHT22;68178;52.188;5.598;2023-05-29T13:05:31;20.90;96.50
19138;DHT22;68178;52.188;5.598;2023-05-29T13:07:58;21.00;97.00
19138;DHT22;68178;52.188;5.598;2023-05-29T13:10:24;20.90;97.50
19138;DHT22;68178;52.188;5.598;2023-05-29T13:12:50;21.20;97.10
19138;DHT22;68178;52.188;5.598;2023-05-29T13:15:21;21.50;95.10
19138;DHT22;68178;52.188;5.598;2023-05-29T13:17:47;21.40;96.70
19138;DHT22;68178;52.188;5.598;2023-05-29T13:20:13;21.60;96.10
19138;DHT22;68178;52.188;5.598;2023-05-29T13:22:39;21.80;96.40
19138;DHT22;68178;52.188;5.598;2023-05-29T13:25:06;22.30;96.70
19138;DHT22;68178;52.188;5.598;2023-05-29T13:27:33;22.30;95.00
19138;DHT22;68178;52.188;5.598;2023-05-29T13:30:03;22.30;94.80
19138;DHT22;68178;52.188;5.598;2023-05-29T13:32:29;22.50;93.50
19138;DHT22;68178;52.188;5.598;2023-05-29T13:34:55;22.40;94.60
19138;DHT22;68178;52.188;5.598;2023-05-29T13:37:20;22.10;93.70
19138;DHT22;68178;52.188;5.598;2023-05-29T13:39:46;22.20;94.60
19138;DHT22;68178;52.188;5.598;2023-05-29T13:42:12;22.30;95.10
19138;DHT22;68178;52.188;5.598;2023-05-29T13:44:38;22.40;94.20
19138;DHT22;68178;52.188;5.598;2023-05-29T13:47:05;22.40;92.70
19138;DHT22;68178;52.188;5.598;2023-05-29T13:49:31;22.40;92.00
19138;DHT22;68178;52.188;5.598;2023-05-29T13:51:56;22.10;92.60
19138;DHT22;68178;52.188;5.598;2023-05-29T13:54:22;22.00;92.50
19138;DHT22;68178;52.188;5.598;2023-05-29T13:56:48;22.10;93.10
19138;DHT22;68178;52.188;5.598;2023-05-29T13:59:14;22.10;92.90
19138;DHT22;68178;52.188;5.598;2023-05-29T14:01:40;22.00;92.70
19138;DHT22;68178;52.188;5.598;2023-05-29T14:04:05;22.00;92.40
19138;DHT22;68178;52.188;5.598;2023-05-29T14:06:32;21.70;92.10
19138;DHT22;68178;52.188;5.598;2023-05-29T14:09:01;21.60;92.90
19138;DHT22;68178;52.188;5.598;2023-05-29T14:11:26;21.70;92.40
19138;DHT22;68178;52.188;5.598;2023-05-29T14:13:52;22.00;93.00
19138;DHT22;68178;52.188;5.598;2023-05-29T14:16:18;22.10;92.50
19138;DHT22;68178;52.188;5.598;2023-05-29T14:18:43;21.80;91.90
19138;DHT22;68178;52.188;5.598;2023-05-29T14:21:09;22.10;93.60
19138;DHT22;68178;52.188;5.598;2023-05-29T14:23:36;22.40;93.50
19138;DHT22;68178;52.188;5.598;2023-05-29T14:26:02;22.60;93.40
19138;DHT22;68178;52.188;5.598;2023-05-29T14:28:28;22.40;92.80
19138;DHT22;68178;52.188;5.598;2023-05-29T14:30:53;22.00;92.40
19138;DHT22;68178;52.188;5.598;2023-05-29T14:33:19;22.00;92.20
19138;DHT22;68178;52.188;5.598;2023-05-29T14:35:45;22.00;92.20
19138;DHT22;68178;52.188;5.598;2023-05-29T14:38:10;22.10;93.10
19138;DHT22;68178;52.188;5.598;2023-05-29T14:40:36;22.40;93.40
19138;DHT22;68178;52.188;5.598;2023-05-29T14:43:02;22.50;92.60
19138;DHT22;68178;52.188;5.598;2023-05-29T14:45:28;22.20;92.40
19138;DHT22;68178;52.188;5.598;2023-05-29T14:47:54;22.20;92.30
19138;DHT22;68178;52.188;5.598;2023-05-29T14:50:19;21.70;92.70
19138;DHT22;68178;52.188;5.598;2023-05-29T14:52:45;21.60;93.30
19138;DHT22;68178;52.188;5.598;2023-05-29T14:55:13;21.50;93.80
19138;DHT22;68178;52.188;5.598;2023-05-29T14:57:40;21.50;92.40
19138;DHT22;68178;52.188;5.598;2023-05-29T15:00:07;21.40;92.70
19138;DHT22;68178;52.188;5.598;2023-05-29T15:02:33;21.10;92.00
19138;DHT22;68178;52.188;5.598;2023-05-29T15:04:59;21.00;92.90
19138;DHT22;68178;52.188;5.598;2023-05-29T15:07:25;20.70;93.20
19138;DHT22;68178;52.188;5.598;2023-05-29T15:09:50;20.80;93.50
19138;DHT22;68178;52.188;5.598;2023-05-29T15:12:16;20.70;92.90
19138;DHT22;68178;52.188;5.598;2023-05-29T15:14:41;20.20;93.20
19138;DHT22;68178;52.188;5.598;2023-05-29T15:17:07;20.20;94.40
19138;DHT22;68178;52.188;5.598;2023-05-29T15:19:32;20.20;92.60
19138;DHT22;68178;52.188;5.598;2023-05-29T15:21:58;20.50;93.90
19138;DHT22;68178;52.188;5.598;2023-05-29T15:24:23;20.70;93.80
19138;DHT22;68178;52.188;5.598;2023-05-29T15:26:49;20.60;92.10
19138;DHT22;68178;52.188;5.598;2023-05-29T15:29:15;20.40;92.60
19138;DHT22;68178;52.188;5.598;2023-05-29T15:31:41;20.50;93.30
19138;DHT22;68178;52.188;5.598;2023-05-29T15:34:07;20.50;93.70
19138;DHT22;68178;52.188;5.598;2023-05-29T15:36:33;20.70;92.70
19138;DHT22;68178;52.188;5.598;2023-05-29T15:38:59;20.70;92.00
19138;DHT22;68178;52.188;5.598;2023-05-29T15:41:24;20.40;92.20
19138;DHT22;68178;52.188;5.598;2023-05-29T15:43:57;20.30;92.00
19138;DHT22;68178;52.188;5.598;2023-05-29T15:46:26;20.40;92.50
19138;DHT22;68178;52.188;5.598;2023-05-29T15:48:51;20.40;92.50
19138;DHT22;68178;52.188;5.598;2023-05-29T15:51:17;20.40;93.50
19138;DHT22;68178;52.188;5.598;2023-05-29T15:53:42;20.50;92.40